Time;durP1;ratioP1;P1;durP2;ratioP2;P2;SDS_P1;SDS_P2;PMS_P1;PMS_P2;Temp;Humidity;BMP_temperature;BMP_pressure;BME280_temperature;BME280_humidity;BME280_pressure;Samples;Min_cycle;Max_cycle;Signal;HPM_P1;HPM_P2
2022/09/25 00:01:05;;;;;;;22.58;17.63;;;;;;;14.10;86.97;97733.00;4974283;28;20688;-90
2022/09/25 00:03:33;;;;;;;21.55;17.92;;;;;;;14.15;87.33;97751.56;4953898;28;20047;-90
2022/09/25 00:06:17;;;;;;;21.23;17.48;;;;;;;14.00;87.28;97741.50;4974003;28;20070;-91
2022/09/25 00:08:45;;;;;;;22.58;18.00;;;;;;;14.03;87.45;97743.66;4952891;29;20079;-91
2022/09/25 00:11:19;;;;;;;22.63;18.17;;;;;;;14.11;87.33;97756.50;4954305;29;20085;-91
2022/09/25 00:13:47;;;;;;;24.63;17.48;;;;;;;13.95;87.67;97749.28;4933520;29;20051;-91
2022/09/25 00:16:19;;;;;;;24.35;18.98;;;;;;;13.92;88.05;97736.56;4945615;29;20053;-90
2022/09/25 00:21:34;;;;;;;22.90;17.48;;;;;;;14.02;87.56;97741.25;4952168;29;20043;-90
2022/09/25 00:24:04;;;;;;;23.40;17.42;;;;;;;13.94;87.44;97731.88;4951779;29;20124;-90
2022/09/25 00:26:39;;;;;;;24.65;18.25;;;;;;;14.03;87.48;97748.13;4953163;29;20801;-91
2022/09/25 00:29:09;;;;;;;24.05;18.23;;;;;;;13.85;87.80;97727.94;4952905;29;20122;-90
2022/09/25 00:31:36;;;;;;;21.92;17.55;;;;;;;13.90;87.44;97743.88;4954996;29;20050;-91
2022/09/25 00:34:05;;;;;;;21.40;17.33;;;;;;;14.06;86.92;97758.22;4955181;29;20047;-91
2022/09/25 00:36:33;;;;;;;21.67;17.33;;;;;;;13.95;86.53;97733.47;4951765;29;20043;-90
2022/09/25 00:39:00;;;;;;;21.40;17.33;;;;;;;13.99;86.15;97737.25;4953594;29;20142;-90
2022/09/25 00:41:31;;;;;;;20.38;17.33;;;;;;;14.03;86.62;97741.00;4954572;29;20049;-91
2022/09/25 00:44:01;;;;;;;23.10;18.90;;;;;;;14.03;86.79;97746.28;4953490;29;20487;-90
2022/09/25 00:46:41;;;;;;;21.42;17.83;;;;;;;14.05;86.64;97741.59;4937199;29;20126;-90
2022/09/25 00:49:21;;;;;;;22.58;17.58;;;;;;;14.00;86.38;97733.59;4936706;29;20039;-90
2022/09/25 00:52:02;;;;;;;21.23;17.42;;;;;;;14.01;86.47;97735.19;4925819;29;20399;-91
2022/09/25 00:54:35;;;;;;;23.88;17.92;;;;;;;14.01;86.24;97724.63;4950876;29;20053;-91
2022/09/25 00:57:09;;;;;;;23.35;17.58;;;;;;;13.88;87.10;97716.97;4950716;28;20049;-90
2022/09/25 00:59:43;;;;;;;23.23;17.88;;;;;;;13.87;86.93;97718.00;4955747;29;20050;-90
2022/09/25 01:02:23;;;;;;;21.35;17.90;;;;;;;13.97;86.85;97728.75;4956002;29;20122;-90
2022/09/25 01:04:51;;;;;;;21.45;17.35;;;;;;;13.92;86.92;97716.28;4955671;29;20051;-91
2022/09/25 01:07:18;;;;;;;26.65;18.77;;;;;;;13.97;86.39;97723.47;4941020;29;20062;-90
2022/09/25 01:09:45;;;;;;;22.48;19.25;;;;;;;13.99;86.45;97731.97;4956704;29;20138;-91
2022/09/25 01:12:12;;;;;;;24.38;18.73;;;;;;;13.90;86.67;97718.31;4954064;29;20134;-90
2022/09/25 01:14:40;;;;;;;22.88;18.33;;;;;;;13.88;86.89;97719.59;4957903;29;20039;-89
2022/09/25 01:17:20;;;;;;;22.73;18.67;;;;;;;13.91;86.91;97727.03;4957807;29;20495;-90
2022/09/25 01:20:13;;;;;;;23.30;18.85;;;;;;;13.89;87.11;97727.28;4938392;29;20070;-90
2022/09/25 01:22:54;;;;;;;22.50;18.60;;;;;;;13.91;87.27;97727.03;4956787;29;20076;-91
2022/09/25 01:26:01;;;;;;;22.25;18.45;;;;;;;13.90;87.35;97723.59;4954992;29;20043;-90
2022/09/25 01:29:03;;;;;;;24.17;18.17;;;;;;;13.88;87.29;97724.88;4940325;29;20069;-90
2022/09/25 01:32:07;;;;;;;22.05;18.10;;;;;;;13.87;87.07;97724.06;4955360;29;20054;-91
2022/09/25 01:34:48;;;;;;;27.02;20.23;;;;;;;13.79;87.55;97721.75;4938250;29;20137;-89
2022/09/25 01:37:26;;;;;;;23.60;19.30;;;;;;;13.72;88.06;97728.19;4954271;29;20048;-90
2022/09/25 01:40:13;;;;;;;26.92;19.83;;;;;;;13.72;88.24;97721.06;4938896;29;20154;-91
2022/09/25 01:43:00;;;;;;;24.02;19.05;;;;;;;13.76;88.06;97716.97;4938282;29;20046;-90
2022/09/25 01:45:42;;;;;;;26.50;19.75;;;;;;;13.72;87.92;97712.38;4954030;29;20659;-91
2022/09/25 01:48:14;;;;;;;24.38;20.02;;;;;;;13.79;88.04;97710.41;4953768;29;20046;-90
2022/09/25 01:51:08;;;;;;;26.23;18.92;;;;;;;13.78;87.75;97706.19;4954947;29;20039;-91
2022/09/25 01:53:47;;;;;;;24.23;19.42;;;;;;;13.79;87.83;97705.16;4950167;29;20098;-90
2022/09/25 01:56:30;;;;;;;24.88;19.70;;;;;;;13.65;87.90;97688.78;4950205;29;20674;-91
2022/09/25 01:59:44;;;;;;;25.98;19.77;;;;;;;13.77;87.71;97702.75;4954462;29;20047;-91
2022/09/25 02:02:18;;;;;;;22.70;17.88;;;;;;;13.60;88.12;97686.00;4957546;29;20039;-91
2022/09/25 02:04:59;;;;;;;25.95;19.77;;;;;;;13.62;87.85;97679.50;4957021;29;20043;-91
2022/09/25 02:07:35;;;;;;;23.83;19.35;;;;;;;13.76;87.45;97689.81;4942792;28;20084;-91
2022/09/25 02:10:14;;;;;;;25.27;19.23;;;;;;;13.83;87.41;97698.41;4962295;28;20054;-90
2022/09/25 02:12:51;;;;;;;24.10;18.17;;;;;;;13.75;87.84;97709.28;4975882;28;20697;-91
2022/09/25 02:15:45;;;;;;;25.45;18.70;;;;;;;13.72;88.13;97704.47;4958018;28;20074;-91
2022/09/25 02:21:16;;;;;;;22.25;18.00;;;;;;;13.83;87.55;97703.66;4963771;28;20049;-90
2022/09/25 02:24:08;;;;;;;24.80;19.02;;;;;;;13.73;87.36;97691.06;4975531;28;20042;-91
2022/09/25 02:26:37;;;;;;;23.15;17.95;;;;;;;13.74;87.52;97694.50;4976374;28;20053;-91
2022/09/25 02:29:05;;;;;;;22.88;18.40;;;;;;;13.76;87.61;97685.34;4958240;28;20050;-91
2022/09/25 02:31:45;;;;;;;23.80;17.95;;;;;;;13.80;86.92;97683.06;4974213;28;20625;-90
2022/09/25 02:34:12;;;;;;;22.93;18.57;;;;;;;13.82;86.72;97681.78;4975821;28;20137;-91
2022/09/25 02:36:42;;;;;;;21.17;17.60;;;;;;;13.86;86.56;97690.03;4969472;28;20039;-90
2022/09/25 02:39:13;;;;;;;23.85;17.85;;;;;;;13.83;86.90;97687.84;4976315;28;20387;-91
2022/09/25 02:42:06;;;;;;;;;;;;;;;13.85;86.86;97693.69;4960087;28;20043;-92
2022/09/25 02:44:45;;;;;;;20.25;15.23;;;;;;;13.71;87.19;97694.97;4965937;28;19929;-91
2022/09/25 02:48:07;;;;;;;20.30;16.05;;;;;;;13.70;87.14;97688.09;4973677;28;20046;-92
2022/09/25 02:51:19;;;;;;;15.77;14.07;;;;;;;13.80;87.23;97691.75;4974668;28;20117;-91
2022/09/25 02:54:17;;;;;;;19.10;15.20;;;;;;;13.88;86.53;97687.97;4957142;28;20039;-92
2022/09/25 02:57:11;;;;;;;18.50;14.82;;;;;;;13.86;86.86;97690.03;4953924;29;20043;-92
2022/09/25 02:59:51;;;;;;;17.50;14.98;;;;;;;13.84;86.76;97687.63;4970127;28;20054;-90
2022/09/25 03:02:20;;;;;;;19.83;15.20;;;;;;;13.85;86.36;97691.88;4973261;28;20042;-91
2022/09/25 03:04:52;;;;;;;21.00;17.00;;;;;;;13.81;86.06;97679.38;4968605;28;20046;-91
2022/09/25 03:07:20;;;;;;;19.88;17.77;;;;;;;13.83;86.25;97677.31;4975131;28;20110;-91
2022/09/25 03:09:52;;;;;;;20.40;17.25;;;;;;;13.77;86.49;97686.13;4957118;28;20063;-91
2022/09/25 03:12:19;;;;;;;23.75;18.98;;;;;;;13.75;86.77;97696.13;4973181;28;20043;-91
2022/09/25 03:14:45;;;;;;;23.88;18.52;;;;;;;13.72;86.74;97686.00;4974431;28;20051;-91
2022/09/25 03:17:14;;;;;;;21.02;17.40;;;;;;;13.70;87.16;97698.63;4953990;29;20491;-91
2022/09/25 03:19:41;;;;;;;23.65;19.30;;;;;;;13.67;87.30;97697.22;4968506;28;20122;-90
2022/09/25 03:22:08;;;;;;;24.95;18.88;;;;;;;13.56;87.10;97690.16;4974265;28;20063;-90
2022/09/25 03:24:34;;;;;;;22.45;18.05;;;;;;;13.47;87.84;97694.94;4972890;28;20057;-90
2022/09/25 03:27:01;;;;;;;23.77;18.55;;;;;;;13.39;88.13;97684.75;4947467;28;20078;-91
2022/09/25 03:29:29;;;;;;;23.77;18.88;;;;;;;13.45;87.91;97691.75;4971207;28;20590;-91
2022/09/25 03:31:56;;;;;;;24.33;19.48;;;;;;;13.45;88.54;97704.91;4971918;28;20458;-91
2022/09/25 03:34:23;;;;;;;24.08;18.83;;;;;;;13.49;88.56;97700.78;4973769;28;20061;-91
2022/09/25 03:36:50;;;;;;;26.58;19.27;;;;;;;13.46;88.48;97693.34;4955041;28;20394;-91
2022/09/25 03:39:16;;;;;;;25.25;18.92;;;;;;;13.50;88.26;97699.78;4974322;28;20105;-91
2022/09/25 03:41:44;;;;;;;24.83;18.95;;;;;;;13.53;87.70;97695.88;4974304;28;20042;-91
2022/09/25 03:44:11;;;;;;;25.85;19.70;;;;;;;13.50;88.05;97691.88;4974482;28;20122;-91
2022/09/25 03:46:38;;;;;;;26.48;18.90;;;;;;;13.56;87.93;97701.50;4972810;28;20093;-91
2022/09/25 03:49:06;;;;;;;25.55;19.75;;;;;;;13.57;87.74;97692.56;4969059;28;20113;-91
2022/09/25 03:51:34;;;;;;;24.75;19.80;;;;;;;13.53;87.75;97680.06;4973819;28;20050;-91
2022/09/25 03:54:02;;;;;;;23.50;17.25;;;;;;;13.45;88.46;97689.09;4962243;28;20066;-91
2022/09/25 03:56:29;;;;;;;23.13;18.38;;;;;;;13.48;88.47;97688.63;4948563;28;20054;-91
2022/09/25 03:58:57;;;;;;;24.10;17.75;;;;;;;13.53;88.29;97699.31;4973376;28;20137;-92
2022/09/25 04:01:25;;;;;;;23.05;17.80;;;;;;;13.56;88.18;97688.31;4972387;28;20046;-91
2022/09/25 04:03:53;;;;;;;26.10;18.58;;;;;;;13.49;88.40;97690.25;4972203;28;20045;-91
2022/09/25 04:06:24;;;;;;;25.02;18.55;;;;;;;13.47;88.29;97676.50;4972825;28;20093;-92
2022/09/25 04:08:52;;;;;;;24.42;17.88;;;;;;;13.39;88.10;97663.69;4971255;28;20614;-91
2022/09/25 04:11:23;;;;;;;21.55;17.90;;;;;;;13.38;87.88;97668.16;4938868;28;20807;-91
2022/09/25 04:13:53;;;;;;;23.70;17.70;;;;;;;13.45;88.07;97683.03;4970845;28;20042;-92
2022/09/25 04:16:20;;;;;;;22.65;17.20;;;;;;;13.50;88.13;97689.22;4953628;28;20073;-91
2022/09/25 04:18:49;;;;;;;24.60;18.35;;;;;;;13.50;87.58;97683.97;4935740;28;20050;-92
2022/09/25 04:21:15;;;;;;;24.95;18.42;;;;;;;13.42;87.41;97667.69;4972256;28;20418;-91
2022/09/25 04:24:46;;;;;;;24.00;17.02;;;;;;;13.43;87.34;97675.34;4968379;28;20098;-92
2022/09/25 04:26:30;;;;;;;26.35;17.88;;;;;;;13.31;87.45;97656.91;4957552;28;20042;-92
2022/09/25 04:28:57;;;;;;;26.90;17.95;;;;;;;13.44;87.83;97682.25;4971992;28;20046;-92
2022/09/25 04:31:24;;;;;;;22.73;17.20;;;;;;;13.34;87.83;97666.19;4953925;28;20042;-92
2022/09/25 04:33:51;;;;;;;24.90;17.80;;;;;;;13.28;88.89;97667.91;4969453;28;20051;-92
2022/09/25 04:36:20;;;;;;;25.67;18.27;;;;;;;13.26;88.64;97664.69;4970946;28;20046;-91
2022/09/25 04:38:48;;;;;;;27.60;19.40;;;;;;;13.32;88.49;97663.00;4971749;28;20483;-91
2022/09/25 04:41:18;;;;;;;22.88;17.45;;;;;;;13.41;89.00;97674.78;4971926;28;20105;-91
2022/09/25 04:43:45;;;;;;;24.30;17.75;;;;;;;13.29;88.77;97666.06;4968827;28;20538;-91
2022/09/25 04:46:13;;;;;;;22.60;17.83;;;;;;;13.42;89.13;97679.00;4972280;28;20039;-92
2022/09/25 04:48:48;;;;;;;22.48;17.45;;;;;;;13.27;88.81;97657.59;4958928;28;20047;-92
2022/09/25 04:51:17;;;;;;;24.70;17.67;;;;;;;13.47;88.83;97670.44;4972707;28;20055;-92
2022/09/25 04:53:43;;;;;;;24.50;17.95;;;;;;;13.43;88.47;97659.53;4953610;28;20043;-93
2022/09/25 04:56:13;;;;;;;23.55;18.13;;;;;;;13.44;88.05;97661.16;4971618;28;20073;-91
2022/09/25 04:58:49;;;;;;;23.38;16.55;;;;;;;13.44;87.92;97666.44;4970963;28;20046;-92
2022/09/25 05:01:19;;;;;;;21.05;17.33;;;;;;;13.53;87.56;97672.16;4952616;28;20050;-92
2022/09/25 05:03:52;;;;;;;21.50;16.90;;;;;;;13.44;87.64;97658.53;4951838;28;20082;-91
2022/09/25 05:06:21;;;;;;;18.90;16.40;;;;;;;13.50;87.31;97670.78;4970930;28;20035;-91
2022/09/25 05:08:48;;;;;;;20.75;15.52;;;;;;;13.48;87.45;97672.81;4972373;28;20090;-91
2022/09/25 05:11:15;;;;;;;21.95;17.33;;;;;;;13.48;87.64;97672.81;4956280;28;20085;-91
2022/09/25 05:13:45;;;;;;;22.35;17.50;;;;;;;13.49;88.19;97684.16;4973150;28;20074;-91
2022/09/25 05:16:12;;;;;;;25.33;17.60;;;;;;;13.37;88.29;97668.34;4970220;28;20542;-91
2022/09/25 05:18:39;;;;;;;22.13;16.77;;;;;;;13.35;88.64;97667.78;4971833;28;20042;-90
2022/09/25 05:21:06;;;;;;;20.52;15.93;;;;;;;13.35;88.77;97673.84;4971938;28;20050;-91
2022/09/25 05:23:33;;;;;;;21.73;17.27;;;;;;;13.25;88.77;97668.34;4955035;28;20461;-91
2022/09/25 05:26:00;;;;;;;22.50;17.20;;;;;;;13.27;89.29;97660.22;4970424;28;20151;-90
2022/09/25 05:28:31;;;;;;;23.00;17.65;;;;;;;13.25;89.11;97657.00;4969460;28;20086;-92
2022/09/25 05:31:02;;;;;;;21.60;17.38;;;;;;;13.20;89.35;97654.25;4947524;28;20043;-92
2022/09/25 05:33:30;;;;;;;;;;;;;;;13.25;89.46;97670.97;4972579;28;20047;-91
2022/09/25 05:36:06;;;;;;;18.70;15.93;;;;;;;13.20;89.12;97673.47;4972471;28;20437;-93
2022/09/25 05:38:36;;;;;;;22.05;17.75;;;;;;;13.29;88.89;97663.44;4954367;28;20051;-91
2022/09/25 05:41:09;;;;;;;22.25;16.80;;;;;;;13.20;88.54;97662.13;4962347;28;20070;-93
2022/09/25 05:43:42;;;;;;;21.58;16.70;;;;;;;13.21;88.11;97669.03;4973124;28;20049;-89
2022/09/25 05:46:10;;;;;;;20.60;16.35;;;;;;;13.20;88.50;97657.66;4959241;28;20471;-90
2022/09/25 05:48:37;;;;;;;21.40;15.98;;;;;;;13.20;88.02;97664.78;4973098;28;20063;-90
2022/09/25 05:51:22;;;;;;;23.55;18.08;;;;;;;13.23;88.43;97659.06;4968060;28;20524;-90
2022/09/25 05:53:55;;;;;;;22.00;16.35;;;;;;;13.24;88.31;97656.19;4973423;28;20055;-88
2022/09/25 05:56:23;;;;;;;23.17;16.90;;;;;;;13.30;88.39;97662.38;4971226;28;20043;-90
2022/09/25 05:58:51;;;;;;;20.30;15.88;;;;;;;13.38;88.63;97668.16;4974379;28;20479;-90
2022/09/25 06:01:19;;;;;;;21.58;16.42;;;;;;;13.36;87.88;97656.22;4976365;28;20054;-90
2022/09/25 06:03:45;;;;;;;21.48;17.30;;;;;;;13.38;87.88;97659.44;4974877;28;20055;-91
2022/09/25 06:06:12;;;;;;;22.75;16.70;;;;;;;13.35;87.75;97659.88;4973269;28;20410;-90
2022/09/25 06:08:39;;;;;;;23.98;16.95;;;;;;;13.29;87.92;97653.69;4968156;28;20039;-90
2022/09/25 06:11:07;;;;;;;22.25;16.20;;;;;;;13.27;88.32;97655.75;4975299;28;20081;-89
2022/09/25 06:13:35;;;;;;;22.92;16.98;;;;;;;13.36;88.40;97670.19;4974371;28;20435;-90
2022/09/25 06:16:04;;;;;;;24.75;17.30;;;;;;;13.31;88.75;97682.44;4952138;28;20077;-89
2022/09/25 06:18:32;;;;;;;23.73;17.55;;;;;;;13.31;88.87;97677.16;4974524;28;20046;-89
2022/09/25 06:21:03;;;;;;;23.33;16.00;;;;;;;13.35;88.55;97670.41;4956846;28;20046;-90
2022/09/25 06:23:30;;;;;;;23.17;17.08;;;;;;;13.25;88.02;97657.00;4974603;28;20570;-89
2022/09/25 06:26:03;;;;;;;21.30;16.13;;;;;;;13.22;88.38;97658.25;4974796;28;20097;-89
2022/09/25 06:28:30;;;;;;;23.08;16.88;;;;;;;13.25;88.42;97662.25;4975042;28;20035;-89
2022/09/25 06:31:02;;;;;;;23.10;16.77;;;;;;;13.31;88.60;97662.19;4974572;28;20463;-90
2022/09/25 06:33:29;;;;;;;20.80;16.08;;;;;;;13.31;88.36;97658.72;4974505;28;20499;-89
2022/09/25 06:35:56;;;;;;;21.13;16.38;;;;;;;13.45;88.41;97668.03;4975070;28;20570;-90
2022/09/25 06:38:24;;;;;;;23.33;16.77;;;;;;;13.50;87.79;97659.44;4973483;28;20108;-90
2022/09/25 06:40:51;;;;;;;21.55;16.45;;;;;;;13.48;87.77;97666.75;4973257;28;20137;-90
2022/09/25 06:43:18;;;;;;;22.15;17.25;;;;;;;13.53;87.76;97675.59;4975552;28;20058;-90
2022/09/25 06:45:48;;;;;;;20.67;16.67;;;;;;;13.50;87.58;97664.72;4973241;28;20503;-90
2022/09/25 06:48:16;;;;;;;25.33;17.98;;;;;;;13.65;87.78;97679.03;4953137;28;20431;-90
2022/09/25 06:50:49;;;;;;;24.17;17.13;;;;;;;13.37;87.80;97656.00;4968271;28;20043;-90
2022/09/25 06:53:18;;;;;;;24.40;16.65;;;;;;;13.49;88.31;97679.69;4974629;28;20065;-89
2022/09/25 06:55:46;;;;;;;22.25;16.48;;;;;;;13.55;88.57;97681.41;4965581;28;20053;-89
2022/09/25 06:58:18;;;;;;;21.05;15.85;;;;;;;13.64;88.51;97692.44;4969853;28;20035;-89
2022/09/25 07:00:50;;;;;;;21.13;16.58;;;;;;;13.54;88.50;97687.72;4965358;28;20057;-91
2022/09/25 07:06:06;;;;;;;22.02;15.52;;;;;;;13.57;88.11;97689.91;4967631;28;20042;-89
2022/09/25 07:08:33;;;;;;;23.45;16.52;;;;;;;13.47;87.99;97684.41;4954900;28;20483;-90
2022/09/25 07:11:01;;;;;;;24.98;16.42;;;;;;;13.56;88.09;97690.94;4972474;28;20138;-88
2022/09/25 07:13:30;;;;;;;21.30;15.95;;;;;;;13.52;87.78;97684.53;4957395;28;20141;-89
2022/09/25 07:16:00;;;;;;;23.98;17.20;;;;;;;13.67;87.43;97684.06;4953850;29;20139;-89
2022/09/25 07:18:29;;;;;;;24.88;16.73;;;;;;;13.74;87.37;97682.13;4972368;28;20063;-89
2022/09/25 07:21:09;;;;;;;27.60;17.92;;;;;;;13.78;86.97;97693.00;4976842;28;20138;-89
2022/09/25 07:23:36;;;;;;;26.47;17.73;;;;;;;13.88;87.55;97693.25;4974285;28;20062;-89
2022/09/25 07:26:20;;;;;;;26.13;17.73;;;;;;;14.00;86.76;97696.66;4971723;28;20047;-88
2022/09/25 07:28:56;;;;;;;25.65;16.95;;;;;;;14.04;86.88;97682.00;4963937;28;20126;-87
2022/09/25 07:31:29;;;;;;;26.80;18.40;;;;;;;14.10;85.86;97702.16;4972152;28;20051;-90
2022/09/25 07:34:01;;;;;;;27.95;17.75;;;;;;;14.04;85.73;97697.81;4970276;28;20042;-88
2022/09/25 07:36:28;;;;;;;27.33;17.23;;;;;;;14.13;85.58;97699.06;4974058;28;20045;-88
2022/09/25 07:38:55;;;;;;;27.02;17.75;;;;;;;14.25;85.50;97698.22;4956742;28;20510;-88
2022/09/25 07:41:22;;;;;;;31.25;18.35;;;;;;;14.30;86.29;97698.34;4957765;28;20515;-88
2022/09/25 07:43:55;;;;;;;28.77;18.65;;;;;;;14.26;86.56;97691.91;4974230;28;20042;-88
2022/09/25 07:46:43;;;;;;;26.45;17.27;;;;;;;14.27;86.36;97691.69;4947308;28;20105;-89
2022/09/25 07:49:10;;;;;;;25.88;16.98;;;;;;;14.32;85.81;97693.63;4953220;28;20050;-88
2022/09/25 07:51:37;;;;;;;30.73;17.88;;;;;;;14.25;84.84;97682.41;4953068;29;20077;-89
2022/09/25 07:54:03;;;;;;;29.80;18.05;;;;;;;14.36;84.85;97697.41;4936791;28;20051;-87
2022/09/25 07:56:33;;;;;;;26.73;17.65;;;;;;;14.49;84.58;97694.53;4968341;28;20073;-88
2022/09/25 07:59:00;;;;;;;29.48;16.75;;;;;;;14.62;83.99;97688.97;4956573;28;20515;-88
2022/09/25 08:01:27;;;;;;;31.70;17.92;;;;;;;14.82;83.71;97698.34;4956682;28;20676;-90
2022/09/25 08:03:54;;;;;;;27.88;16.35;;;;;;;14.88;82.85;97695.56;4974780;28;20372;-88
2022/09/25 08:06:20;;;;;;;25.80;16.52;;;;;;;14.87;82.44;97693.94;4973724;28;20503;-88
2022/09/25 08:08:47;;;;;;;30.20;17.75;;;;;;;14.97;83.23;97698.59;4971731;28;20045;-88
2022/09/25 08:11:16;;;;;;;25.70;17.23;;;;;;;15.03;82.26;97688.94;4968432;28;20049;-87
2022/09/25 08:13:44;;;;;;;25.80;16.02;;;;;;;15.26;82.31;97697.53;4961273;28;20055;-90
2022/09/25 08:16:17;;;;;;;23.63;16.42;;;;;;;15.19;82.58;97707.44;4965410;28;20044;-86
2022/09/25 08:18:46;;;;;;;26.52;16.60;;;;;;;15.26;82.76;97700.16;4963723;28;20035;-88
2022/09/25 08:21:18;;;;;;;22.67;16.23;;;;;;;15.30;80.86;97695.22;4967729;28;20065;-88
2022/09/25 08:23:51;;;;;;;26.67;15.80;;;;;;;15.25;82.07;97688.00;4963913;28;20070;-87
2022/09/25 08:26:20;;;;;;;28.13;17.00;;;;;;;15.45;82.06;97694.66;4960460;28;20054;-87
2022/09/25 08:28:48;;;;;;;26.02;17.55;;;;;;;15.37;81.90;97690.56;4968932;28;20090;-86
2022/09/25 08:31:14;;;;;;;26.88;17.38;;;;;;;15.51;81.63;97693.69;4970472;28;20055;-90
2022/09/25 08:33:46;;;;;;;25.30;17.05;;;;;;;15.55;80.97;97701.94;4967836;28;20109;-88
2022/09/25 08:36:14;;;;;;;22.73;15.27;;;;;;;15.55;80.90;97686.09;4969105;28;20058;-90
2022/09/25 08:38:42;;;;;;;27.67;16.90;;;;;;;15.68;80.89;97669.91;4968991;28;20051;-89
2022/09/25 08:41:22;;;;;;;27.05;15.68;;;;;;;15.89;81.27;97689.50;4950667;28;20142;-87
2022/09/25 08:44:19;;;;;;;25.10;15.68;;;;;;;15.71;81.01;97686.09;4965676;28;20059;-88
2022/09/25 08:50:13;;;;;;;24.80;15.85;;;;;;;15.73;80.60;97662.88;4959786;28;20062;-87
2022/09/25 08:52:48;;;;;;;24.92;15.35;;;;;;;15.87;81.10;97670.44;4945710;28;20054;-87
2022/09/25 08:58:32;;;;;;;24.05;15.23;;;;;;;16.06;81.72;97650.59;4958348;28;20511;-87
2022/09/25 09:01:30;;;;;;;24.80;15.05;;;;;;;16.19;80.92;97675.88;4946588;28;20070;-86
2022/09/25 09:04:27;;;;;;;23.45;15.23;;;;;;;15.97;79.57;97678.53;4958799;28;20689;-87
2022/09/25 09:07:10;;;;;;;25.77;14.70;;;;;;;15.93;80.63;97677.41;4953349;28;20118;-87
2022/09/25 09:10:07;;;;;;;22.92;15.60;;;;;;;15.70;78.92;97679.19;4964045;28;20050;-87
2022/09/25 09:12:46;;;;;;;23.55;15.05;;;;;;;15.63;82.14;97677.78;4967239;28;20070;-86
2022/09/25 09:15:39;;;;;;;26.23;15.95;;;;;;;15.53;83.29;97681.00;4969520;28;20125;-87
2022/09/25 09:18:27;;;;;;;23.73;15.10;;;;;;;15.32;82.94;97679.13;4950050;28;20512;-87
2022/09/25 09:20:56;;;;;;;23.10;14.55;;;;;;;15.23;84.35;97674.25;4958629;28;20391;-88
2022/09/25 09:23:48;;;;;;;24.42;14.88;;;;;;;14.91;82.02;97671.28;4959905;28;20503;-87
2022/09/25 09:26:48;;;;;;;25.73;14.93;;;;;;;14.77;83.76;97659.44;4942398;28;20054;-90
2022/09/25 09:29:53;;;;;;;25.15;15.55;;;;;;;14.78;84.26;97663.69;4968995;28;20061;-89
2022/09/25 09:33:05;;;;;;;24.52;16.00;;;;;;;15.16;85.08;97667.50;4950319;28;20058;-86
2022/09/25 09:36:16;;;;;;;27.85;15.23;;;;;;;15.31;83.03;97659.03;4947959;28;20061;-86
2022/09/25 09:39:05;;;;;;;24.80;15.03;;;;;;;15.73;82.05;97668.16;4968556;28;20051;-86
2022/09/25 09:41:49;;;;;;;23.55;13.80;;;;;;;16.01;80.25;97658.47;4968459;28;20092;-86
2022/09/25 09:44:41;;;;;;;22.58;13.82;;;;;;;16.14;78.30;97655.47;4967607;28;20085;-87
2022/09/25 09:47:54;;;;;;;20.67;13.93;;;;;;;16.41;78.49;97642.28;4967550;28;20058;-87
2022/09/25 09:50:49;;;;;;;21.20;13.20;;;;;;;16.66;76.16;97649.69;4970868;28;20581;-89
2022/09/25 09:53:27;;;;;;;19.58;12.73;;;;;;;16.56;75.58;97645.09;4967394;28;20054;-88
2022/09/25 09:56:09;;;;;;;18.35;11.93;;;;;;;16.63;75.82;97631.66;4971596;28;20521;-88
2022/09/25 09:58:42;;;;;;;21.13;12.70;;;;;;;16.75;75.38;97640.28;4965559;28;20051;-89
2022/09/25 10:01:12;;;;;;;18.13;11.70;;;;;;;16.58;74.20;97636.91;4964042;28;20353;-88
2022/09/25 10:04:23;;;;;;;18.85;11.88;;;;;;;16.77;76.96;97643.50;4967039;28;20406;-89
2022/09/25 10:07:05;;;;;;;18.65;11.82;;;;;;;17.14;75.51;97645.41;4966667;28;20057;-89
2022/09/25 10:09:32;;;;;;;18.77;11.93;;;;;;;17.31;74.86;97638.13;4954031;28;20043;-87
2022/09/25 10:12:14;;;;;;;16.83;11.80;;;;;;;17.46;72.56;97618.09;4971553;28;20046;-88
2022/09/25 10:14:46;;;;;;;19.65;13.00;;;;;;;17.57;71.77;97611.78;4966839;28;20051;-89
2022/09/25 10:17:15;;;;;;;16.25;11.93;;;;;;;17.71;71.05;97626.19;4952605;28;20062;-91
2022/09/25 10:19:58;;;;;;;20.33;12.43;;;;;;;17.34;72.19;97603.19;4971782;28;20066;-90
2022/09/25 10:22:34;;;;;;;18.63;12.05;;;;;;;17.50;71.52;97625.25;4973425;28;20051;-89
2022/09/25 10:25:04;;;;;;;18.25;12.07;;;;;;;17.29;71.95;97616.38;4976456;28;20472;-89
2022/09/25 10:27:37;;;;;;;16.33;10.98;;;;;;;17.32;71.74;97621.16;4972156;28;20055;-89
2022/09/25 10:30:09;;;;;;;17.20;10.88;;;;;;;17.17;72.11;97618.41;4973073;28;20039;-91
2022/09/25 10:33:00;;;;;;;16.15;10.85;;;;;;;17.14;74.00;97613.59;4974593;28;20070;-91
2022/09/25 10:35:36;;;;;;;16.05;10.75;;;;;;;17.16;71.73;97614.16;4974031;28;20051;-90
2022/09/25 10:38:15;;;;;;;17.42;11.02;;;;;;;17.24;72.37;97608.38;4975214;28;20049;-90
2022/09/25 10:40:46;;;;;;;16.10;11.05;;;;;;;17.00;69.50;97601.84;4971969;28;20134;-89
2022/09/25 10:43:22;;;;;;;15.20;10.32;;;;;;;17.33;71.87;97611.34;4956532;28;20158;-89
2022/09/25 10:46:04;;;;;;;17.52;9.95;;;;;;;17.53;72.60;97618.66;4972429;28;20850;-89
2022/09/25 10:51:25;;;;;;;14.45;11.00;;;;;;;17.28;71.20;97614.00;4974136;28;20039;-88
2022/09/25 10:54:19;;;;;;;14.18;10.63;;;;;;;17.30;72.25;97620.63;4971698;28;20132;-87
2022/09/25 10:57:33;;;;;;;15.68;10.48;;;;;;;17.29;72.65;97621.69;4954881;28;20417;-92
2022/09/25 11:00:19;;;;;;;15.50;10.25;;;;;;;16.91;72.58;97608.63;4971475;28;20495;-89
2022/09/25 11:02:55;;;;;;;11.00;8.27;;;;;;;16.68;71.04;97623.78;4960045;28;20135;-89
2022/09/25 11:05:34;;;;;;;15.20;9.73;;;;;;;16.33;70.57;97624.22;4969819;28;20067;-88
2022/09/25 11:08:08;;;;;;;4.47;3.03;;;;;;;15.99;68.87;97618.25;4953401;28;20145;-89
2022/09/25 11:11:04;;;;;;;2.88;2.42;;;;;;;15.75;71.06;97610.53;4972791;28;20078;-92
2022/09/25 11:13:54;;;;;;;2.00;1.80;;;;;;;15.60;70.44;97626.16;4950608;28;20054;-84
2022/09/25 11:16:42;;;;;;;2.05;1.70;;;;;;;15.33;71.56;97626.03;4964002;28;20058;-85
2022/09/25 11:19:24;;;;;;;2.00;1.60;;;;;;;15.15;73.05;97640.28;4966761;28;20047;-85
2022/09/25 11:22:07;;;;;;;3.63;1.75;;;;;;;15.12;74.59;97646.06;4967382;28;20476;-86
2022/09/25 11:24:45;;;;;;;2.97;2.10;;;;;;;15.01;75.26;97639.00;4962078;28;20050;-85
2022/09/25 11:27:30;;;;;;;4.10;1.80;;;;;;;14.91;78.39;97649.38;4967745;28;20042;-89
2022/09/25 11:30:15;;;;;;;2.35;1.88;;;;;;;14.72;78.65;97652.22;4969289;28;20042;-85
2022/09/25 11:33:05;;;;;;;4.28;2.13;;;;;;;14.68;80.35;97655.56;4967093;28;20046;-89
2022/09/25 11:35:59;;;;;;;4.50;2.05;;;;;;;14.55;81.23;97659.28;4972942;28;20050;-86
2022/09/25 11:42:37;;;;;;;6.63;2.63;;;;;;;14.26;84.00;97642.59;4970686;28;20538;-86
2022/09/25 11:45:23;;;;;;;5.22;2.40;;;;;;;13.96;82.06;97640.16;4974713;28;20089;-87
2022/09/25 11:48:02;;;;;;;4.65;1.65;;;;;;;13.44;84.34;97628.75;4976126;28;20038;-91
2022/09/25 11:51:29;;;;;;;3.10;1.95;;;;;;;13.11;85.70;97628.22;4975077;28;20061;-92
2022/09/25 11:54:12;;;;;;;4.45;2.38;;;;;;;12.94;86.83;97624.63;4976587;28;20101;-89
2022/09/25 11:57:10;;;;;;;4.40;2.67;;;;;;;13.25;88.77;97622.75;4963605;28;20054;-88
2022/09/25 12:00:19;;;;;;;4.35;2.63;;;;;;;13.46;86.76;97634.59;4976396;28;20050;-87
2022/09/25 12:03:31;;;;;;;2.90;2.58;;;;;;;13.71;89.76;97644.88;4988985;28;20465;-90
2022/09/25 12:06:47;;;;;;;5.13;3.20;;;;;;;14.00;90.50;97641.31;4961153;28;20403;-89
2022/09/25 12:10:02;;;;;;;7.68;4.03;;;;;;;14.05;88.01;97636.13;4902630;28;20097;-90
2022/09/25 12:12:41;;;;;;;8.98;4.28;;;;;;;14.09;88.51;97641.72;4947101;28;20431;-90
2022/09/25 12:15:20;;;;;;;10.27;4.75;;;;;;;14.08;88.47;97640.94;4961857;28;20109;-91
2022/09/25 12:18:16;;;;;;;11.52;4.60;;;;;;;14.18;88.19;97630.59;4976032;28;20073;-91
2022/09/25 12:21:02;;;;;;;8.98;3.75;;;;;;;14.27;86.63;97627.56;4975765;28;20050;-90
2022/09/25 12:23:48;;;;;;;7.22;3.75;;;;;;;14.28;86.79;97611.53;4976360;28;20082;-90